• Join FlightAware (Why Join?)
  • Login
  • US Flag 
11:46PM EDT


 

Airport Tracker/Info


-or-


 

Live Flight TrackerFlight Track Log ✈ N820LW ✈ 12-Dec-2013 ✈ KCEF - KPEO

Flight Track Log - Related Links

Times and Time Zones

All times are in EST time to prevent confusion due to time zone crossing. See the N820LW flight status page for this flight to view local times or setup timezone preferences in your user account.

Time Position Orientation Groundspeed Altitude Reporting Facility
EST Latitude Longitude Course Direction KTS MPH feet Rate Location/Type
03:57PM 42.1706 -72.5572 256° West 116 133 800  Level Boston Center
03:58PM 42.1686 -72.5681 256° West 114 131 1,300 900 Climbing Boston Center
03:59PM 42.1528 -72.6147 245° Southwest 141 162 2,000 720 Climbing Boston Center
03:59PM 42.1528 -72.6175 270° West 131 151 2,100 660 Climbing Boston Center
04:00PM 42.1400 -72.6694 252° West 146 168 2,700 420 Climbing Boston Center
04:01PM 42.1306 -72.7256 257° West 157 181 3,000 240 Climbing Boston Center
04:02PM 42.1217 -72.7906 260° West 164 189 3,200 300 Climbing Boston Center
04:03PM 42.1347 -72.8344 292° West 158 182 3,700 540 Climbing Boston Center
04:03PM 42.1372 -72.8369 323° Northwest 154 177 3,800 960 Climbing Boston Center
04:03PM 42.1375 -72.8400 277° West 165 190 3,800 840 Level Boston Center
04:03PM 42.1478 -72.8547 313° West 153 176 4,100 720 Climbing Boston Center
04:04PM 42.1644 -72.8797 312° West 150 173 4,500 540 Climbing Boston Center
04:04PM 42.1764 -72.8986 310° West 148 170 4,700 660 Climbing Boston Center
04:05PM 42.1942 -72.9256 312° West 151 174 5,200 720 Climbing Boston Center
04:05PM 42.1994 -72.9378 300° West 148 170 5,400 540 Climbing Boston Center
04:06PM 42.2203 -72.9686 312° West 149 171 5,800 600 Climbing Boston Center
04:06PM 42.2242 -72.9800 295° West 147 169 6,000 600 Climbing Boston Center
04:07PM 42.2456 -73.0106 313° West 145 167 6,400 600 Climbing Boston Center
04:07PM 42.2511 -73.0206 307° West 146 168 6,600 540 Climbing Boston Center
04:08PM 42.2714 -73.0503 313° West 140 161 7,000 480 Climbing Boston Center
04:08PM 42.2764 -73.0603 304° West 139 160 7,100 660 Climbing Boston Center
04:09PM 42.2989 -73.0911 315° West 137 158 7,700 540 Climbing Boston Center
04:09PM 42.3014 -73.1003 290° West 136 157 7,700 240 Level Boston Center
04:10PM 42.3225 -73.1306 313° West 136 157 8,000 300 Climbing Boston Center
04:10PM 42.3264 -73.1400 299° West 137 158 8,000  Level Boston Center
04:11PM 42.3519 -73.1744 315° West 155 178 8,000  Level Boston Center
04:11PM 42.3550 -73.1842 293° West 147 169 8,000  Level Boston Center
04:12PM 42.3767 -73.2150 314° West 144 166 8,000  Level Boston Center
04:12PM 42.3800 -73.2242 296° West 145 167 8,000  Level Boston Center
04:13PM 42.4014 -73.2578 311° West 144 166 8,000  Level Boston Center
04:13PM 42.3975 -73.2703 247° West 142 163 8,000  Level Boston Center
04:14PM 42.4033 -73.3144 280° West 142 163 8,000  Level Boston Center
04:14PM 42.4008 -73.3233 249° West 141 162 8,000  Level Boston Center
04:15PM 42.4061 -73.3658 280° West 137 158 8,000  Level Boston Center
04:15PM 42.4044 -73.3739 254° West 139 160 8,000  Level Boston Center
04:16PM 42.4097 -73.4178 279° West 136 157 8,000  Level Boston Center
04:16PM 42.4097 -73.4278 270° West 138 159 8,000  Level Boston Center
04:17PM 42.4131 -73.4808 275° West 137 158 8,000  Level Boston Center
04:18PM 42.4183 -73.5347 278° West 139 160 8,000  Level Boston Center
04:19PM 42.4231 -73.5761 279° West 137 158 8,000  Level Boston Center
04:19PM 42.4219 -73.5853 261° West 138 159 8,000  Level Boston Center
04:20PM 42.4269 -73.6275 279° West 137 158 8,000  Level Boston Center
04:20PM 42.4256 -73.6356 257° West 136 157 8,000  Level Boston Center
04:21PM 42.4306 -73.6786 279° West 137 158 8,000  Level Boston Center
04:21PM 42.4292 -73.6861 256° West 137 158 8,000  Level Boston Center
04:22PM 42.4347 -73.7333 279° West 135 155 8,000  Level Boston Center
04:22PM 42.4342 -73.7400 264° West 137 158 8,000  Level Boston Center
04:23PM 42.4389 -73.7842 278° West 135 155 8,000  Level Boston Center
04:23PM 42.4378 -73.7906 257° West 136 157 8,000  Level Boston Center
04:24PM 42.4425 -73.8353 278° West 136 157 8,000  Level Boston Center
04:24PM 42.4414 -73.8411 256° West 136 157 8,000  Level Boston Center
04:25PM 42.4456 -73.8844 277° West 131 151 8,000  Level Boston Center
04:25PM 42.4444 -73.8942 261° West 131 151 8,000  Level Boston Center
04:26PM 42.4500 -73.9375 280° West 133 153 8,000  Level Boston Center
04:26PM 42.4486 -73.9419 247° West 133 153 8,000  Level Boston Center
04:27PM 42.4539 -73.9867 279° West 131 151 8,000  Level Boston Center
04:27PM 42.4519 -73.9925 246° West 132 152 8,000  Level Boston Center
04:28PM 42.4578 -74.0353 280° West 131 151 8,000  Level Boston Center
04:28PM 42.4561 -74.0403 246° West 131 151 8,000 -120 Level Boston Center
04:29PM 42.4608 -74.0833 278° West 128 147 7,900  Descending Boston Center
04:29PM 42.4600 -74.0881 257° West 128 147 8,000  Climbing Boston Center
04:30PM 42.4644 -74.1347 277° West 129 148 7,900 -120 Descending Boston Center
04:30PM 42.4639 -74.1358 236° Southwest 126 145 7,900  Level Boston Center
04:31PM 42.4672 -74.1864 275° West 136 157 7,900  Level Boston Center
04:32PM 42.4708 -74.2331 276° West 129 148 7,900  Level Boston Center
04:33PM 42.4747 -74.2819 276° West 132 152 7,900  Level Boston Center
04:34PM 42.4775 -74.3344 274° West 130 150 7,900  Level Boston Center
04:35PM 42.4811 -74.3814 276° West 126 145 7,900  Level Boston Center
04:37PM 42.4850 -74.4278 277° West 123 142 7,900  Level Boston Center
04:38PM 42.4878 -74.4800 274° West 128 147 7,900  Level Boston Center
04:39PM 42.4922 -74.5289 277° West 130 150 7,900  Level Boston Center
04:40PM 42.4947 -74.5753 274° West 123 142 7,900  Level Boston Center
04:41PM 42.4978 -74.6211 275° West 123 142 7,900  Level Boston Center
04:42PM 42.5008 -74.6714 275° West 123 142 7,900  Level Boston Center
04:43PM 42.5039 -74.7178 275° West 124 143 7,900  Level Boston Center
04:44PM 42.5069 -74.7658 275° West 128 147 7,900  Level Boston Center
04:45PM 42.5106 -74.8167 276° West 129 148 7,900  Level Boston Center
04:46PM 42.5139 -74.8625 276° West 125 144 7,900  Level Boston Center
04:47PM 42.5175 -74.9089 276° West 124 143 7,900  Level Boston Center
04:48PM 42.5197 -74.9547 274° West 124 143 7,900  Level Boston Center
04:49PM 42.5236 -75.0028 276° West 126 145 7,900  Level Boston Center
04:50PM 42.5256 -75.0481 273° West 123 142 7,900  Level Boston Center
04:51PM 42.5292 -75.0961 276° West 126 145 7,900  Level Boston Center
04:52PM 42.5322 -75.1425 275° West 125 144 7,900  Level Boston Center
04:53PM 42.5358 -75.1958 275° West 121 139 7,900  Level Boston Center
04:54PM 42.5381 -75.2425 274° West 123 142 7,900  Level Boston Center
04:55PM 42.5406 -75.2889 274° West 124 143 7,900  Level Boston Center
04:56PM 42.5428 -75.3297 274° West 125 144 7,900  Level Boston Center
04:56PM 42.5442 -75.3350 290° West 123 142 7,900  Level Boston Center
04:57PM 42.5442 -75.3736 270° West 123 142 7,900  Level Boston Center
04:57PM 42.5472 -75.3819 296° West 124 143 7,900  Level Boston Center
04:58PM 42.5489 -75.4211 273° West 124 143 7,900  Level Boston Center
04:58PM 42.5503 -75.4275 286° West 123 142 7,900  Level Boston Center
04:59PM 42.5508 -75.4622 271° West 119 137 7,900  Level Boston Center
04:59PM 42.5528 -75.4711 287° West 120 138 7,900 60 Level Boston Center
05:00PM 42.5536 -75.5092 272° West 121 139 8,000 60 Climbing Boston Center
05:00PM 42.5547 -75.5172 281° West 120 138 8,000 -120 Level Boston Center
05:01PM 42.5567 -75.5564 274° West 129 148 7,900 -120 Descending Boston Center
05:01PM 42.5581 -75.5669 280° West 127 146 7,900  Level Boston Center
05:02PM 42.5578 -75.6000 269° West 125 144 7,900 60 Level Boston Center
05:02PM 42.5625 -75.6253 284° West 130 150 8,000  Climbing Boston Center
05:03PM 42.5611 -75.6444 264° West 120 138 7,900 -120 Descending Boston Center
05:03PM 42.5653 -75.6700 282° West 124 143 7,900  Level Boston Center
05:04PM 42.5647 -75.7003 269° West 120 138 7,900  Level Boston Center
05:04PM 42.5669 -75.7144 282° West 119 137 7,900  Level Boston Center
05:05PM 42.5681 -75.7447 273° West 121 139 7,900  Level Boston Center
05:05PM 42.5706 -75.7592 283° West 118 136 7,900  Level Boston Center
05:06PM 42.5711 -75.7892 271° West 122 140 7,900 60 Level Boston Center
05:06PM 42.5725 -75.8047 277° West 119 137 8,000  Climbing Boston Center
05:07PM 42.5728 -75.8300 271° West 122 140 7,900 -120 Descending Boston Center
05:07PM 42.5750 -75.8528 278° West 125 144 7,900  Level Boston Center
05:08PM 42.5742 -75.8739 267° West 128 147 7,900  Level Boston Center
05:08PM 42.5781 -75.8992 282° West 124 143 7,900  Level Boston Center
05:09PM 42.5767 -75.9211 265° West 127 146 7,900  Level Boston Center
05:09PM 42.5806 -75.9469 282° West 127 146 7,900  Level Boston Center
05:10PM 42.5833 -75.9928 275° West 124 143 7,900  Level Boston Center
05:11PM 42.5867 -76.0469 275° West 121 139 8,000  Climbing Boston Center
05:12PM 42.5883 -76.0944 273° West 125 144 7,900 -60 Descending Boston Center
05:13PM 42.5922 -76.1406 277° West 123 142 7,900  Level Boston Center
05:14PM 42.5947 -76.1867 274° West 123 142 7,900  Level Boston Center
05:15PM 42.5967 -76.2319 273° West 121 139 8,000 -60 Climbing Boston Center
05:16PM 42.5994 -76.2836 274° West 125 144 7,800 -420 Descending Boston Center
05:17PM 42.6017 -76.3333 273° West 130 150 7,200 -600 Descending Boston Center
05:18PM 42.6047 -76.3850 275° West 137 158 6,600 -600 Descending Boston Center
05:19PM 42.6086 -76.4406 275° West 144 166 6,000 -660 Descending Boston Center
05:20PM 42.6106 -76.4939 273° West 144 166 5,300 -540 Descending Boston Center
05:22PM 42.6133 -76.5503 274° West 148 170 5,000 -180 Descending Boston Center
05:23PM 42.6164 -76.6019 275° West 141 162 5,000 -300 Level Boston Center
05:24PM 42.6178 -76.6544 272° West 139 160 4,500 -480 Descending Boston Center
05:25PM 42.6233 -76.7244 276° West 152 175 4,100 -300 Descending Boston Center
05:26PM 42.6244 -76.7783 272° West 146 168 4,000 -300 Descending Boston Center
05:27PM 42.6281 -76.8314 275° West 142 163 3,500 -540 Descending Boston Center
05:28PM 42.6308 -76.8847 274° West 142 163 2,900 -600 Descending Boston Center
05:29PM 42.6336 -76.9419 274° West 141 162 2,300 -600 Descending Boston Center
05:31PM 42.6333 -77.0347 270° West  Level FlightAware Approximate
05:38PM 42.6333 -77.0500 270° West  Level FlightAware Approximate
05:39PM 42.6371 -77.0529 270° West  Level Estimated
05:40PM 42.6333 -77.0500 270° West  Level FlightAware Approximate
05:41PM 42.6371 -77.0529 270° West  Level Estimated